YXGO weather

Goondiwindi Hospital Helipad
Goondiwindi, Queensland, Australia

Public forecast

Using degrees Celsius for public forecast. Weather courtesy of forecast.io.

METAR (pilot weather report)

Closest report is Moree Airport, 61.9 nm (114.7 km) SSW. Retrieved 2019/09/17 17:00 UTC (55 minutes ago):

YMOR 171700Z AUTO 21008KT 9999 // NCD 07/04 Q1019

TAF (pilot weather forecast)

Forecast is more than 12 hours old.

Closest forecast is RAAF Base Amberley, 138.8 nm (257.1 km) ENE. Retrieved 2019/09/16 06:00 UTC (1 day ago):

TAF YAMB 160502Z 1606/1624 06014KT CAVOK FM161000 VRB04KT CAVOK PROB30 1617/1621 0800 FG